createdAt,value
2023-09-13T00:00:59.985Z,991.67
2023-09-13T00:01:59.954Z,991.70
2023-09-13T00:02:59.921Z,991.70
2023-09-13T00:03:59.959Z,991.68
2023-09-13T00:04:59.929Z,991.69
2023-09-13T00:05:59.814Z,991.67
2023-09-13T00:06:59.831Z,991.69
2023-09-13T00:07:59.775Z,991.69
2023-09-13T00:08:59.754Z,991.67
2023-09-13T00:09:59.771Z,991.71
2023-09-13T00:10:59.715Z,991.75
2023-09-13T00:11:59.698Z,991.70
2023-09-13T00:12:59.720Z,991.78
2023-09-13T00:13:59.665Z,991.78
2023-09-13T00:14:59.641Z,991.81
2023-09-13T00:15:59.735Z,991.82
2023-09-13T00:16:59.635Z,991.79
2023-09-13T00:17:59.595Z,991.79
2023-09-13T00:18:59.617Z,991.80
2023-09-13T00:19:59.560Z,991.74
2023-09-13T00:20:59.533Z,991.78
2023-09-13T00:21:59.531Z,991.75
2023-09-13T00:22:59.492Z,991.75
2023-09-13T00:23:59.469Z,991.74
2023-09-13T00:24:59.524Z,991.74
2023-09-13T00:25:59.442Z,991.77
2023-09-13T00:26:59.415Z,991.79
2023-09-13T00:27:59.429Z,991.82
2023-09-13T00:28:59.401Z,991.84
2023-09-13T00:29:59.354Z,991.81
2023-09-13T00:30:59.484Z,991.88
2023-09-13T00:31:59.328Z,991.84
2023-09-13T00:32:59.377Z,991.86
2023-09-13T00:33:59.284Z,991.89
2023-09-13T00:34:59.268Z,991.88
2023-09-13T00:35:59.245Z,991.88
2023-09-13T00:36:59.289Z,991.90
2023-09-13T00:37:59.215Z,991.92
2023-09-13T00:38:59.211Z,991.92
2023-09-13T00:39:59.201Z,991.93
2023-09-13T00:40:59.190Z,991.89
2023-09-13T00:41:59.144Z,991.88
2023-09-13T00:42:59.169Z,991.90
2023-09-13T00:43:59.107Z,991.85
2023-09-13T00:44:59.094Z,991.88
2023-09-13T00:45:59.923Z,991.88
2023-09-13T00:46:59.175Z,991.87
2023-09-13T00:47:59.092Z,991.84
2023-09-13T00:48:59.059Z,991.82
2023-09-13T00:49:59.901Z,991.85
2023-09-13T00:50:59.948Z,991.83
2023-09-13T00:51:59.039Z,991.80
2023-09-13T00:52:58.945Z,991.84
2023-09-13T00:53:59.963Z,991.86
2023-09-13T00:54:58.941Z,991.89
2023-09-13T00:55:58.892Z,991.87
2023-09-13T00:56:58.880Z,991.91
2023-09-13T00:57:58.887Z,991.97
2023-09-13T00:58:58.844Z,991.93
2023-09-13T00:59:58.824Z,991.92
2023-09-13T01:00:58.848Z,991.98
2023-09-13T01:01:58.807Z,992.00
2023-09-13T01:02:58.818Z,991.98
2023-09-13T01:03:58.920Z,992.01
2023-09-13T01:04:58.730Z,992.04
2023-09-13T01:05:58.722Z,992.05
2023-09-13T01:06:58.700Z,992.05
2023-09-13T01:07:58.683Z,992.03
2023-09-13T01:08:58.663Z,992.05
2023-09-13T01:09:58.682Z,992.04
2023-09-13T01:10:58.627Z,992.08
2023-09-13T01:11:58.600Z,992.08
2023-09-13T01:12:58.609Z,992.09
2023-09-13T01:13:58.575Z,992.05
2023-09-13T01:14:58.555Z,992.09
2023-09-13T01:15:58.592Z,992.09
2023-09-13T01:16:58.677Z,992.10
2023-09-13T01:17:58.535Z,992.16
2023-09-13T01:18:58.496Z,992.16
2023-09-13T01:19:58.460Z,992.13
2023-09-13T01:20:58.443Z,992.16
2023-09-13T01:21:58.487Z,992.18
2023-09-13T01:22:58.399Z,992.17
2023-09-13T01:23:58.383Z,992.20
2023-09-13T01:24:58.384Z,992.20
2023-09-13T01:25:58.351Z,992.17
2023-09-13T01:26:58.330Z,992.17
2023-09-13T01:27:58.342Z,992.18
2023-09-13T01:28:58.291Z,992.23
2023-09-13T01:29:58.270Z,992.24
2023-09-13T01:30:58.282Z,992.29
2023-09-13T01:31:58.300Z,992.33
2023-09-13T01:32:58.324Z,992.35
2023-09-13T01:33:58.228Z,992.34
2023-09-13T01:34:58.189Z,992.35
2023-09-13T01:35:58.158Z,992.35
2023-09-13T01:36:58.194Z,992.38
2023-09-13T01:37:58.124Z,992.37
2023-09-13T01:38:58.109Z,992.34
2023-09-13T01:39:58.119Z,992.36
2023-09-13T01:40:58.072Z,992.36
2023-09-13T01:41:58.075Z,992.40
2023-09-13T01:42:58.085Z,992.37
2023-09-13T01:43:58.021Z,992.35
2023-09-13T01:44:58.973Z,992.37
2023-09-13T01:45:58.048Z,992.34
2023-09-13T01:46:58.050Z,992.35
2023-09-13T01:47:57.966Z,992.37
2023-09-13T01:48:57.972Z,992.38
2023-09-13T01:49:57.896Z,992.34
2023-09-13T01:50:57.911Z,992.40
2023-09-13T01:51:57.942Z,992.37
2023-09-13T01:52:57.856Z,992.40
2023-09-13T01:53:57.837Z,992.38
2023-09-13T01:54:57.821Z,992.40
2023-09-13T01:55:57.795Z,992.40
2023-09-13T01:56:57.787Z,992.42
2023-09-13T01:57:57.801Z,992.42
2023-09-13T01:58:57.756Z,992.42
2023-09-13T01:59:57.715Z,992.42
2023-09-13T02:00:57.779Z,992.45
2023-09-13T02:01:57.708Z,992.44
2023-09-13T02:02:57.745Z,992.40
2023-09-13T02:03:57.742Z,992.47
2023-09-13T02:04:57.633Z,992.41
2023-09-13T02:05:57.608Z,992.43
2023-09-13T02:06:57.657Z,992.40
2023-09-13T02:07:57.578Z,992.44
2023-09-13T02:08:57.545Z,992.47
2023-09-13T02:09:57.572Z,992.48
2023-09-13T02:10:57.513Z,992.48
2023-09-13T02:11:57.503Z,992.44
2023-09-13T02:12:57.485Z,992.46
2023-09-13T02:13:57.458Z,992.48
2023-09-13T02:14:57.465Z,992.52
2023-09-13T02:15:57.479Z,992.55
2023-09-13T02:16:57.439Z,992.52
2023-09-13T02:17:57.449Z,992.54
2023-09-13T02:18:57.417Z,992.52
2023-09-13T02:19:57.358Z,992.54
2023-09-13T02:20:57.327Z,992.56
2023-09-13T02:21:57.346Z,992.62
2023-09-13T02:22:57.294Z,992.59
2023-09-13T02:23:57.308Z,992.60
2023-09-13T02:24:57.363Z,992.55
2023-09-13T02:25:57.244Z,992.58
2023-09-13T02:26:57.230Z,992.56
2023-09-13T02:27:57.219Z,992.51
2023-09-13T02:28:57.172Z,992.53
2023-09-13T02:29:57.161Z,992.53
2023-09-13T02:30:57.173Z,992.49
2023-09-13T02:31:57.217Z,992.52
2023-09-13T02:32:57.986Z,992.48
2023-09-13T02:33:57.121Z,992.49
2023-09-13T02:34:57.070Z,992.46
2023-09-13T02:35:57.068Z,992.47
2023-09-13T02:36:57.058Z,992.48
2023-09-13T02:37:57.016Z,992.45
2023-09-13T02:38:56.996Z,992.49
2023-09-13T02:39:57.033Z,992.45
2023-09-13T02:40:56.958Z,992.41
2023-09-13T02:41:56.937Z,992.45
2023-09-13T02:42:56.973Z,992.39
2023-09-13T02:43:56.895Z,992.37
2023-09-13T02:44:56.914Z,992.37
2023-09-13T02:45:56.898Z,992.42
2023-09-13T02:46:56.862Z,992.45
2023-09-13T02:47:56.888Z,992.45
2023-09-13T02:48:56.868Z,992.48
2023-09-13T02:49:56.790Z,992.43
2023-09-13T02:50:56.756Z,992.45
2023-09-13T02:51:56.826Z,992.49
2023-09-13T02:52:56.716Z,992.40
2023-09-13T02:53:56.703Z,992.45
2023-09-13T02:54:56.735Z,992.42
2023-09-13T02:55:56.664Z,992.42
2023-09-13T02:56:56.656Z,992.46
2023-09-13T02:57:56.683Z,992.39
2023-09-13T02:58:56.626Z,992.36
2023-09-13T02:59:56.594Z,992.37
2023-09-13T03:00:56.657Z,992.37
2023-09-13T03:01:56.666Z,992.37
2023-09-13T03:02:56.649Z,992.43
2023-09-13T03:03:56.547Z,992.37
2023-09-13T03:04:56.516Z,992.37
2023-09-13T03:05:56.484Z,992.35
2023-09-13T03:06:56.493Z,992.38
2023-09-13T03:07:56.438Z,992.40
2023-09-13T03:08:56.420Z,992.42
2023-09-13T03:09:56.424Z,992.40
2023-09-13T03:10:56.403Z,992.38
2023-09-13T03:11:56.366Z,992.39
2023-09-13T03:12:56.357Z,992.45
2023-09-13T03:13:56.322Z,992.42
2023-09-13T03:14:56.319Z,992.51
2023-09-13T03:15:56.375Z,992.44
2023-09-13T03:16:56.305Z,992.43
2023-09-13T03:17:57.980Z,992.41
2023-09-13T03:18:56.252Z,992.43
2023-09-13T03:19:56.209Z,992.44
2023-09-13T03:20:56.192Z,992.43
2023-09-13T03:21:56.222Z,992.48
2023-09-13T03:22:56.149Z,992.45
2023-09-13T03:23:56.138Z,992.46
2023-09-13T03:24:56.150Z,992.48
2023-09-13T03:25:56.092Z,992.49
2023-09-13T03:26:56.061Z,992.52
2023-09-13T03:27:56.059Z,992.48
2023-09-13T03:28:56.025Z,992.46
2023-09-13T03:29:56.010Z,992.48
2023-09-13T03:30:56.153Z,992.42
2023-09-13T03:31:56.082Z,992.41
2023-09-13T03:32:56.033Z,992.43
2023-09-13T03:33:56.002Z,992.40
2023-09-13T03:34:55.906Z,992.36
2023-09-13T03:35:55.890Z,992.39
2023-09-13T03:36:55.883Z,992.38
2023-09-13T03:37:55.845Z,992.36
2023-09-13T03:38:55.862Z,992.37
2023-09-13T03:39:55.840Z,992.39
2023-09-13T03:40:56.440Z,992.42
2023-09-13T03:41:57.671Z,992.41
2023-09-13T03:42:55.775Z,992.43
2023-09-13T03:43:55.739Z,992.41
2023-09-13T03:44:55.706Z,992.43
2023-09-13T03:45:55.813Z,992.41
2023-09-13T03:46:55.736Z,992.43
2023-09-13T03:47:55.658Z,992.48
2023-09-13T03:48:55.675Z,992.49
2023-09-13T03:49:55.611Z,992.49
2023-09-13T03:50:55.587Z,992.49
2023-09-13T03:51:55.642Z,992.48
2023-09-13T03:52:55.549Z,992.49
2023-09-13T03:53:55.536Z,992.51
2023-09-13T03:54:55.583Z,992.55
2023-09-13T03:55:55.512Z,992.50
2023-09-13T03:56:55.470Z,992.53
2023-09-13T03:57:55.466Z,992.51
2023-09-13T03:58:55.460Z,992.49
2023-09-13T03:59:55.427Z,992.47
2023-09-13T04:00:55.444Z,992.43
2023-09-13T04:01:57.000Z,992.44
2023-09-13T04:02:55.384Z,992.42
2023-09-13T04:03:55.476Z,992.43
2023-09-13T04:04:55.401Z,992.47
2023-09-13T04:05:55.361Z,992.48
2023-09-13T04:06:55.410Z,992.55
2023-09-13T04:07:55.265Z,992.53
2023-09-13T04:08:55.248Z,992.57
2023-09-13T04:09:55.257Z,992.57
2023-09-13T04:10:55.204Z,992.55
2023-09-13T04:11:55.188Z,992.60
2023-09-13T04:12:55.195Z,992.66
2023-09-13T04:13:55.152Z,992.68
2023-09-13T04:14:55.137Z,992.67
2023-09-13T04:15:55.152Z,992.66
2023-09-13T04:16:55.172Z,992.66
2023-09-13T04:17:55.100Z,992.73
2023-09-13T04:18:55.075Z,992.73
2023-09-13T04:19:55.042Z,992.73
2023-09-13T04:20:55.018Z,992.68
2023-09-13T04:21:55.084Z,992.69
2023-09-13T04:22:54.981Z,992.71
2023-09-13T04:23:54.951Z,992.76
2023-09-13T04:24:54.985Z,992.74
2023-09-13T04:25:54.922Z,992.78
2023-09-13T04:26:54.891Z,992.70
2023-09-13T04:27:54.903Z,992.69
2023-09-13T04:28:54.927Z,992.71
2023-09-13T04:29:54.847Z,992.70
2023-09-13T04:30:54.857Z,992.73
2023-09-13T04:31:54.845Z,992.73
2023-09-13T04:32:54.821Z,992.74
2023-09-13T04:33:55.059Z,992.70
2023-09-13T04:34:54.750Z,992.70
2023-09-13T04:35:54.736Z,992.70
2023-09-13T04:36:54.716Z,992.67
2023-09-13T04:37:54.688Z,992.68
2023-09-13T04:38:54.699Z,992.70
2023-09-13T04:39:54.710Z,992.70
2023-09-13T04:40:54.651Z,992.73
2023-09-13T04:41:54.618Z,992.73
2023-09-13T04:42:54.608Z,992.71
2023-09-13T04:43:54.575Z,992.71
2023-09-13T04:44:54.564Z,992.73
2023-09-13T04:45:54.570Z,992.75
2023-09-13T04:46:54.673Z,992.75
2023-09-13T04:47:54.539Z,992.80
2023-09-13T04:48:54.522Z,992.75
2023-09-13T04:49:54.465Z,992.74
2023-09-13T04:50:54.484Z,992.80
2023-09-13T04:51:54.450Z,992.77
2023-09-13T04:52:54.453Z,992.83
2023-09-13T04:53:54.391Z,992.85
2023-09-13T04:54:54.394Z,992.84
2023-09-13T04:55:54.354Z,992.87
2023-09-13T04:56:54.355Z,992.89
2023-09-13T04:57:54.347Z,992.93
2023-09-13T04:58:54.288Z,992.92
2023-09-13T04:59:54.314Z,992.93
2023-09-13T05:00:54.290Z,992.98
2023-09-13T05:01:54.354Z,993.00
2023-09-13T05:02:54.246Z,993.03
2023-09-13T05:03:54.310Z,993.05
2023-09-13T05:04:54.217Z,993.06
2023-09-13T05:05:54.179Z,993.06
2023-09-13T05:06:54.170Z,993.08
2023-09-13T05:07:54.131Z,993.11
2023-09-13T05:08:54.104Z,993.08
2023-09-13T05:09:54.113Z,993.07
2023-09-13T05:10:54.062Z,993.10
2023-09-13T05:11:54.050Z,993.09
2023-09-13T05:12:54.115Z,993.11
2023-09-13T05:13:54.020Z,993.09
2023-09-13T05:14:53.988Z,993.10
2023-09-13T05:15:54.035Z,993.10
2023-09-13T05:16:54.077Z,993.10
2023-09-13T05:17:53.957Z,993.10
2023-09-13T05:18:53.952Z,993.08
2023-09-13T05:19:53.936Z,993.11
2023-09-13T05:20:53.877Z,993.11
2023-09-13T05:21:53.897Z,993.14
2023-09-13T05:22:53.841Z,993.11
2023-09-13T05:23:53.839Z,993.10
2023-09-13T05:24:53.862Z,993.10
2023-09-13T05:25:53.786Z,993.08
2023-09-13T05:26:53.768Z,993.15
2023-09-13T05:27:53.770Z,993.11
2023-09-13T05:28:53.741Z,993.13
2023-09-13T05:29:53.715Z,993.16
2023-09-13T05:30:53.789Z,993.17
2023-09-13T05:31:57.568Z,993.16
2023-09-13T05:32:53.721Z,993.17
2023-09-13T05:33:53.663Z,993.19
2023-09-13T05:34:53.659Z,993.20
2023-09-13T05:35:53.609Z,993.22
2023-09-13T05:36:53.659Z,993.21
2023-09-13T05:37:53.584Z,993.28
2023-09-13T05:38:53.552Z,993.32
2023-09-13T05:39:53.556Z,993.31
2023-09-13T05:40:53.512Z,993.36
2023-09-13T05:41:53.492Z,993.35
2023-09-13T05:42:53.519Z,993.34
2023-09-13T05:43:53.462Z,993.37
2023-09-13T05:44:53.443Z,993.32
2023-09-13T05:45:53.450Z,993.34
2023-09-13T05:46:53.479Z,993.34
2023-09-13T05:47:53.512Z,993.34
2023-09-13T05:48:53.419Z,993.31
2023-09-13T05:49:53.353Z,993.33
2023-09-13T05:50:53.332Z,993.33
2023-09-13T05:51:53.377Z,993.28
2023-09-13T05:52:53.320Z,993.28
2023-09-13T05:53:53.316Z,993.27
2023-09-13T05:54:53.316Z,993.31
2023-09-13T05:55:53.251Z,993.29
2023-09-13T05:56:53.242Z,993.29
2023-09-13T05:57:53.261Z,993.34
2023-09-13T05:58:53.189Z,993.30
2023-09-13T05:59:53.191Z,993.30
2023-09-13T06:00:53.270Z,993.32
2023-09-13T06:01:53.228Z,993.31
2023-09-13T06:02:53.171Z,993.31
2023-09-13T06:03:53.231Z,993.33
2023-09-13T06:04:53.149Z,993.34
2023-09-13T06:05:53.077Z,993.38
2023-09-13T06:06:53.081Z,993.39
2023-09-13T06:07:53.042Z,993.42
2023-09-13T06:08:53.005Z,993.44
2023-09-13T06:09:53.048Z,993.45
2023-09-13T06:10:52.981Z,993.49
2023-09-13T06:11:52.968Z,993.50
2023-09-13T06:12:53.025Z,993.48
2023-09-13T06:13:52.936Z,993.54
2023-09-13T06:14:52.910Z,993.54
2023-09-13T06:15:52.973Z,993.55
2023-09-13T06:16:53.032Z,993.58
2023-09-13T06:17:52.978Z,993.62
2023-09-13T06:18:52.871Z,993.59
2023-09-13T06:19:52.812Z,993.63
2023-09-13T06:20:52.803Z,993.59
2023-09-13T06:21:52.788Z,993.59
2023-09-13T06:22:52.773Z,993.62
2023-09-13T06:23:52.750Z,993.62
2023-09-13T06:24:52.764Z,993.59
2023-09-13T06:25:53.513Z,993.64
2023-09-13T06:26:52.701Z,993.65
2023-09-13T06:27:52.749Z,993.68
2023-09-13T06:28:52.797Z,993.67
2023-09-13T06:29:52.658Z,993.67
2023-09-13T06:31:02.536Z,993.67
2023-09-13T06:32:04.738Z,993.70
2023-09-13T06:33:07.662Z,993.68
2023-09-13T06:33:52.684Z,993.71
2023-09-13T06:34:52.754Z,993.71
2023-09-13T06:35:52.664Z,993.66
2023-09-13T06:36:52.968Z,993.71
2023-09-13T06:37:52.677Z,993.73
2023-09-13T06:38:52.587Z,993.72
2023-09-13T06:39:52.588Z,993.71
2023-09-13T06:40:52.749Z,993.70
2023-09-13T06:41:52.529Z,993.70
2023-09-13T06:42:59.681Z,993.75
2023-09-13T06:44:05.901Z,993.75
2023-09-13T06:44:53.706Z,993.72
2023-09-13T06:46:03.248Z,993.74
2023-09-13T06:47:01.901Z,993.77
2023-09-13T06:47:53.978Z,993.77
2023-09-13T06:48:53.117Z,993.78
2023-09-13T06:49:52.532Z,993.79
2023-09-13T06:51:33.455Z,993.79
2023-09-13T06:51:54.502Z,993.84
2023-09-13T06:53:11.254Z,993.83
2023-09-13T06:53:54.785Z,993.83
2023-09-13T06:54:52.763Z,993.81
2023-09-13T06:55:54.286Z,993.84
2023-09-13T06:56:55.054Z,993.81
2023-09-13T06:57:53.241Z,993.80
2023-09-13T06:58:54.773Z,993.80
2023-09-13T06:59:56.388Z,993.84
2023-09-13T07:01:19.467Z,993.85
2023-09-13T07:02:53.909Z,993.90
2023-09-13T07:03:55.773Z,993.93
2023-09-13T07:05:52.188Z,993.91
2023-09-13T07:06:52.162Z,993.93
2023-09-13T07:07:52.045Z,993.95
2023-09-13T07:08:51.995Z,993.96
2023-09-13T07:09:52.013Z,993.95
2023-09-13T07:10:51.989Z,993.95
2023-09-13T07:11:51.952Z,993.98
2023-09-13T07:12:51.933Z,994.02
2023-09-13T07:13:51.966Z,994.07
2023-09-13T07:14:51.903Z,994.08
2023-09-13T07:15:51.876Z,994.11
2023-09-13T07:16:51.952Z,994.10
2023-09-13T07:17:51.908Z,994.15
2023-09-13T07:18:51.833Z,994.17
2023-09-13T07:19:51.845Z,994.21
2023-09-13T07:20:51.799Z,994.22
2023-09-13T07:21:51.791Z,994.23
2023-09-13T07:22:51.812Z,994.25
2023-09-13T07:23:51.858Z,994.22
2023-09-13T07:24:51.733Z,994.27
2023-09-13T07:25:51.786Z,994.28
2023-09-13T07:26:51.720Z,994.28
2023-09-13T07:27:51.675Z,994.25
2023-09-13T07:28:51.716Z,994.27
2023-09-13T07:29:51.640Z,994.29
2023-09-13T07:30:51.675Z,994.28
2023-09-13T07:31:51.633Z,994.30
2023-09-13T07:32:51.655Z,994.34
2023-09-13T07:33:51.576Z,994.33
2023-09-13T07:34:51.579Z,994.33
2023-09-13T07:35:51.551Z,994.29
2023-09-13T07:36:51.544Z,994.32
2023-09-13T07:37:51.637Z,994.31
2023-09-13T07:38:51.510Z,994.37
2023-09-13T07:39:51.478Z,994.35
2023-09-13T07:40:51.469Z,994.34
2023-09-13T07:41:51.452Z,994.38
2023-09-13T07:42:51.428Z,994.38
2023-09-13T07:43:51.438Z,994.41
2023-09-13T07:44:51.392Z,994.41
2023-09-13T07:45:51.377Z,994.43
2023-09-13T07:46:51.437Z,994.43
2023-09-13T07:47:51.422Z,994.45
2023-09-13T07:48:51.335Z,994.43
2023-09-13T07:49:51.347Z,994.48
2023-09-13T07:50:51.295Z,994.46
2023-09-13T07:51:52.050Z,994.47
2023-09-13T07:53:04.450Z,994.49
2023-09-13T07:53:51.292Z,994.50
2023-09-13T07:54:51.238Z,994.54
2023-09-13T07:55:51.243Z,994.48
2023-09-13T07:56:51.234Z,994.50
2023-09-13T07:57:51.185Z,994.48
2023-09-13T07:58:51.263Z,994.53
2023-09-13T07:59:51.160Z,994.57
2023-09-13T08:00:51.168Z,994.57
2023-09-13T08:01:51.154Z,994.60
2023-09-13T08:02:51.247Z,994.63
2023-09-13T08:03:51.173Z,994.66
2023-09-13T08:04:51.157Z,994.66
2023-09-13T08:05:51.069Z,994.69
2023-09-13T08:06:51.061Z,994.68
2023-09-13T08:07:51.098Z,994.66
2023-09-13T08:08:51.116Z,994.67
2023-09-13T08:09:51.003Z,994.66
2023-09-13T08:10:51.043Z,994.70
2023-09-13T08:11:50.969Z,994.67
2023-09-13T08:12:50.986Z,994.70
2023-09-13T08:13:51.016Z,994.74
2023-09-13T08:14:50.948Z,994.71
2023-09-13T08:15:50.981Z,994.76
2023-09-13T08:16:50.972Z,994.81
2023-09-13T08:17:50.891Z,994.80
2023-09-13T08:18:50.877Z,994.85
2023-09-13T08:19:51.419Z,994.81
2023-09-13T08:20:50.851Z,994.80
2023-09-13T08:21:50.831Z,994.83
2023-09-13T08:22:50.840Z,994.85
2023-09-13T08:23:50.800Z,994.90
2023-09-13T08:24:50.814Z,994.91
2023-09-13T08:25:50.784Z,994.93
2023-09-13T08:26:50.754Z,994.92
2023-09-13T08:27:52.635Z,994.94
2023-09-13T08:28:51.620Z,994.93
2023-09-13T08:29:50.732Z,994.95
2023-09-13T08:30:50.733Z,994.96
2023-09-13T08:31:50.694Z,994.96
2023-09-13T08:32:50.688Z,995.00
2023-09-13T08:33:50.682Z,995.02
2023-09-13T08:34:50.676Z,995.00
2023-09-13T08:35:50.620Z,995.00
2023-09-13T08:36:50.628Z,995.01
2023-09-13T08:37:51.088Z,995.02
2023-09-13T08:38:50.577Z,995.00
2023-09-13T08:39:50.599Z,995.03
2023-09-13T08:40:50.726Z,995.03
2023-09-13T08:41:50.635Z,995.06
2023-09-13T08:42:51.083Z,995.06
2023-09-13T08:43:50.535Z,995.07
2023-09-13T08:44:50.494Z,995.09
2023-09-13T08:45:50.524Z,995.11
2023-09-13T08:46:50.576Z,995.14
2023-09-13T08:47:58.679Z,995.15
2023-09-13T08:48:50.467Z,995.20
2023-09-13T08:49:50.511Z,995.15
2023-09-13T08:50:50.430Z,995.16
2023-09-13T08:51:50.390Z,995.17
2023-09-13T08:52:50.414Z,995.22
2023-09-13T08:53:50.361Z,995.19
2023-09-13T08:54:58.632Z,995.22
2023-09-13T08:55:50.363Z,995.25
2023-09-13T08:56:50.332Z,995.24
2023-09-13T08:57:50.311Z,995.27
2023-09-13T08:58:50.369Z,995.27
2023-09-13T08:59:50.277Z,995.24
2023-09-13T09:00:50.269Z,995.24
2023-09-13T09:01:50.397Z,995.25
2023-09-13T09:02:50.351Z,995.28
2023-09-13T09:03:50.258Z,995.27
2023-09-13T09:04:50.282Z,995.27
2023-09-13T09:05:50.182Z,995.31
2023-09-13T09:06:50.166Z,995.27
2023-09-13T09:07:50.247Z,995.28
2023-09-13T09:08:50.142Z,995.28
2023-09-13T09:09:50.164Z,995.28
2023-09-13T09:10:50.123Z,995.28
2023-09-13T09:11:50.105Z,995.29
2023-09-13T09:12:50.121Z,995.25
2023-09-13T09:13:50.136Z,995.28
2023-09-13T09:14:50.060Z,995.36
2023-09-13T09:15:50.070Z,995.35
2023-09-13T09:16:50.034Z,995.36
2023-09-13T09:17:50.072Z,995.37
2023-09-13T09:18:50.002Z,995.40
2023-09-13T09:19:50.015Z,995.36
2023-09-13T09:20:49.975Z,995.33
2023-09-13T09:21:49.955Z,995.29
2023-09-13T09:22:49.957Z,995.30
2023-09-13T09:23:49.942Z,995.30
2023-09-13T09:24:49.917Z,995.33
2023-09-13T09:25:49.917Z,995.31
2023-09-13T09:26:49.875Z,995.34
2023-09-13T09:27:49.874Z,995.33
2023-09-13T09:28:53.096Z,995.32
2023-09-13T09:29:49.870Z,995.38
2023-09-13T09:30:49.832Z,995.39
2023-09-13T09:31:49.872Z,995.42
2023-09-13T09:32:49.840Z,995.40
2023-09-13T09:33:49.781Z,995.38
2023-09-13T09:34:49.785Z,995.42
2023-09-13T09:35:49.760Z,995.40
2023-09-13T09:36:49.741Z,995.39
2023-09-13T09:37:49.778Z,995.40
2023-09-13T09:38:49.802Z,995.39
2023-09-13T09:39:49.692Z,995.39
2023-09-13T09:40:49.737Z,995.41
2023-09-13T09:41:49.674Z,995.40
2023-09-13T09:42:49.653Z,995.45
2023-09-13T09:43:49.762Z,995.45
2023-09-13T09:44:49.628Z,995.40
2023-09-13T09:45:49.776Z,995.46
2023-09-13T09:46:49.615Z,995.42
2023-09-13T09:47:49.717Z,995.42
2023-09-13T09:48:49.574Z,995.43
2023-09-13T09:49:49.600Z,995.44
2023-09-13T09:50:49.570Z,995.48
2023-09-13T09:51:49.535Z,995.44
2023-09-13T09:52:49.533Z,995.44
2023-09-13T09:53:49.567Z,995.46
2023-09-13T09:54:49.533Z,995.47
2023-09-13T09:55:49.487Z,995.47
2023-09-13T09:56:49.469Z,995.48
2023-09-13T09:57:49.451Z,995.47
2023-09-13T09:58:49.487Z,995.48
2023-09-13T09:59:49.418Z,995.51
2023-09-13T10:00:49.470Z,995.57
2023-09-13T10:01:49.456Z,995.56
2023-09-13T10:02:49.536Z,995.55
2023-09-13T10:03:49.477Z,995.52
2023-09-13T10:04:49.546Z,995.53
2023-09-13T10:05:49.375Z,995.56
2023-09-13T10:06:49.371Z,995.64
2023-09-13T10:07:49.341Z,995.62
2023-09-13T10:08:50.182Z,995.66
2023-09-13T10:09:49.313Z,995.66
2023-09-13T10:10:49.330Z,995.65
2023-09-13T10:11:49.270Z,995.70
2023-09-13T10:12:49.256Z,995.71
2023-09-13T10:13:49.312Z,995.69
2023-09-13T10:14:49.241Z,995.70
2023-09-13T10:15:49.297Z,995.72
2023-09-13T10:16:49.245Z,995.75
2023-09-13T10:17:49.340Z,995.68
2023-09-13T10:18:50.427Z,995.68
2023-09-13T10:19:49.231Z,995.67
2023-09-13T10:20:49.152Z,995.71
2023-09-13T10:21:49.151Z,995.68
2023-09-13T10:22:49.153Z,995.69
2023-09-13T10:23:49.115Z,995.72
2023-09-13T10:24:49.124Z,995.71
2023-09-13T10:25:49.108Z,995.66
2023-09-13T10:26:49.071Z,995.63
2023-09-13T10:27:49.055Z,995.63
2023-09-13T10:28:49.059Z,995.64
2023-09-13T10:29:49.063Z,995.64
2023-09-13T10:30:49.014Z,995.69
2023-09-13T10:31:49.089Z,995.65
2023-09-13T10:32:49.056Z,995.66
2023-09-13T10:33:48.975Z,995.70
2023-09-13T10:34:49.023Z,995.70
2023-09-13T10:35:48.947Z,995.70
2023-09-13T10:36:48.932Z,995.73
2023-09-13T10:37:48.962Z,995.69
2023-09-13T10:38:48.913Z,995.71
2023-09-13T10:39:48.893Z,995.72
2023-09-13T10:40:48.905Z,995.69
2023-09-13T10:41:48.870Z,995.68
2023-09-13T10:42:48.855Z,995.66
2023-09-13T10:43:48.871Z,995.67
2023-09-13T10:44:48.823Z,995.64
2023-09-13T10:45:48.820Z,995.63
2023-09-13T10:46:48.872Z,995.64
2023-09-13T10:47:48.889Z,995.59
2023-09-13T10:48:48.775Z,995.62
2023-09-13T10:49:48.788Z,995.62
2023-09-13T10:50:48.749Z,995.59
2023-09-13T10:51:48.749Z,995.63
2023-09-13T10:52:48.767Z,995.58
2023-09-13T10:53:48.708Z,995.57
2023-09-13T10:54:48.705Z,995.59
2023-09-13T10:55:48.736Z,995.68
2023-09-13T10:56:48.672Z,995.67
2023-09-13T10:57:48.678Z,995.66
2023-09-13T10:58:48.802Z,995.69
2023-09-13T10:59:48.645Z,995.68
2023-09-13T11:00:48.653Z,995.69
2023-09-13T11:01:48.651Z,995.71
2023-09-13T11:02:52.076Z,995.71
2023-09-13T11:03:48.668Z,995.75
2023-09-13T11:04:48.624Z,995.70
2023-09-13T11:05:48.556Z,995.71
2023-09-13T11:06:48.559Z,995.71
2023-09-13T11:07:48.985Z,995.69
2023-09-13T11:08:48.542Z,995.67
2023-09-13T11:09:48.512Z,995.68
2023-09-13T11:10:48.544Z,995.70
2023-09-13T11:11:48.485Z,995.70
2023-09-13T11:12:48.469Z,995.73
2023-09-13T11:13:48.499Z,995.71
2023-09-13T11:14:48.457Z,995.76
2023-09-13T11:15:48.444Z,995.74
2023-09-13T11:16:48.532Z,995.72
2023-09-13T11:17:48.496Z,995.70
2023-09-13T11:18:48.761Z,995.69
2023-09-13T11:19:48.458Z,995.69
2023-09-13T11:20:48.416Z,995.73
2023-09-13T11:21:48.392Z,995.76
2023-09-13T11:22:48.429Z,995.74
2023-09-13T11:24:02.665Z,995.76
2023-09-13T11:25:02.380Z,995.74
2023-09-13T11:26:01.020Z,995.69
2023-09-13T11:26:48.446Z,995.76
2023-09-13T11:27:48.340Z,995.80
2023-09-13T11:28:48.640Z,995.73
2023-09-13T11:29:48.319Z,995.76
2023-09-13T11:30:48.365Z,995.77
2023-09-13T11:31:48.315Z,995.75
2023-09-13T11:32:48.326Z,995.73
2023-09-13T11:33:48.269Z,995.75
2023-09-13T11:34:48.287Z,995.73
2023-09-13T11:35:48.279Z,995.74
2023-09-13T11:36:48.237Z,995.76
2023-09-13T11:37:48.241Z,995.76
2023-09-13T11:38:48.218Z,995.72
2023-09-13T11:39:48.214Z,995.77
2023-09-13T11:40:48.262Z,995.74
2023-09-13T11:41:54.434Z,995.73
2023-09-13T11:43:02.540Z,995.74
2023-09-13T11:44:02.455Z,995.74
2023-09-13T11:45:01.073Z,995.75
2023-09-13T11:45:48.176Z,995.75
2023-09-13T11:46:48.225Z,995.76
2023-09-13T11:47:48.243Z,995.79
2023-09-13T11:48:58.798Z,995.75
2023-09-13T11:50:02.079Z,995.78
2023-09-13T11:50:49.991Z,995.83
2023-09-13T11:51:53.849Z,995.79
2023-09-13T11:52:48.511Z,995.80
2023-09-13T11:53:49.046Z,995.80
2023-09-13T11:55:05.308Z,995.87
2023-09-13T11:56:45.785Z,995.90
2023-09-13T11:57:55.320Z,995.95
2023-09-13T11:59:38.896Z,995.97
2023-09-13T12:00:37.756Z,995.96
2023-09-13T12:01:38.467Z,995.91
2023-09-13T12:02:37.958Z,995.87
2023-09-13T12:04:13.191Z,995.90
2023-09-13T12:04:52.770Z,995.88
2023-09-13T12:06:39.524Z,995.88
2023-09-13T12:07:39.396Z,995.91
2023-09-13T12:08:37.687Z,995.90
2023-09-13T12:09:39.558Z,995.89
2023-09-13T12:10:40.431Z,995.88
2023-09-13T12:11:40.496Z,995.89
2023-09-13T12:12:46.213Z,995.89
2023-09-13T12:13:42.945Z,995.90
2023-09-13T12:16:38.339Z,995.92
2023-09-13T12:17:37.425Z,995.88
2023-09-13T12:18:37.339Z,995.85
2023-09-13T12:19:37.360Z,995.84
2023-09-13T12:20:37.273Z,995.82
2023-09-13T12:21:37.448Z,995.82
2023-09-13T12:22:37.220Z,995.85
2023-09-13T12:23:37.219Z,995.85
2023-09-13T12:24:37.256Z,995.90
2023-09-13T12:25:37.189Z,995.86
2023-09-13T12:26:37.167Z,995.90
2023-09-13T12:27:37.303Z,995.86
2023-09-13T12:28:37.197Z,995.89
2023-09-13T12:29:37.140Z,995.86
2023-09-13T12:30:37.216Z,995.85
2023-09-13T12:31:37.137Z,995.89
2023-09-13T12:32:37.104Z,995.81
2023-09-13T12:33:37.138Z,995.83
2023-09-13T12:34:37.066Z,995.82
2023-09-13T12:35:37.063Z,995.82